Time;durP1;ratioP1;P1;durP2;ratioP2;P2;SDS_P1;SDS_P2;PMS_P1;PMS_P2;Temp;Humidity;BMP_temperature;BMP_pressure;BME280_temperature;BME280_humidity;BME280_pressure;Samples;Min_cycle;Max_cycle;Signal;HPM_P1;HPM_P2
2022/05/17 00:02:18;;;;;;;26.17;9.45;;;;;;;8.73;56.67;99540.06;1724270;81;21036;-78
2022/05/17 00:04:44;;;;;;;28.65;9.65;;;;;;;8.64;56.77;99539.14;1692788;82;21045;-82
2022/05/17 00:07:12;;;;;;;20.70;10.18;;;;;;;8.56;57.07;99533.81;1720184;82;21767;-82
2022/05/17 00:09:41;;;;;;;22.48;10.28;;;;;;;8.52;57.44;99536.87;1682602;83;21059;-81
2022/05/17 00:12:13;;;;;;;19.55;9.15;;;;;;;8.49;57.55;99535.57;1687623;83;21042;-81
2022/05/17 00:14:44;;;;;;;25.57;9.50;;;;;;;8.46;57.31;99531.25;1687366;83;21108;-80
2022/05/17 00:17:12;;;;;;;20.65;9.08;;;;;;;8.45;57.51;99540.03;1698139;83;21056;-81
2022/05/17 00:19:42;;;;;;;19.60;9.35;;;;;;;8.47;57.54;99530.12;1680412;84;21080;-81
2022/05/17 00:22:09;;;;;;;18.40;8.55;;;;;;;8.47;57.71;99528.19;1717276;81;21509;-82
2022/05/17 00:24:41;;;;;;;25.75;9.00;;;;;;;8.48;57.52;99522.12;1701574;83;21067;-81
2022/05/17 00:27:08;;;;;;;26.37;9.75;;;;;;;8.49;57.52;99528.70;1724516;82;21419;-82
2022/05/17 00:29:35;;;;;;;21.73;8.83;;;;;;;8.51;57.45;99526.45;1723092;81;21025;-78
2022/05/17 00:32:03;;;;;;;22.45;9.40;;;;;;;8.47;57.41;99524.08;1718496;82;21078;-82
2022/05/17 00:34:31;;;;;;;21.52;9.15;;;;;;;8.47;57.48;99526.82;1717898;81;21068;-82
2022/05/17 00:36:58;;;;;;;21.12;9.90;;;;;;;8.46;57.54;99523.80;1704208;82;21120;-80
2022/05/17 00:39:32;;;;;;;19.27;9.10;;;;;;;8.47;57.66;99530.94;1718652;82;21025;-81
2022/05/17 00:41:59;;;;;;;21.82;8.75;;;;;;;8.47;58.09;99527.37;1728505;81;21547;-81
2022/05/17 00:44:43;;;;;;;18.30;8.15;;;;;;;8.51;58.19;99527.82;1710662;82;21058;-82
2022/05/17 00:47:37;;;;;;;15.45;6.97;;;;;;;8.51;57.68;99525.07;1670270;83;21041;-81
2022/05/17 00:50:39;;;;;;;11.03;5.80;;;;;;;8.53;57.52;99523.39;1705167;83;21092;-82
2022/05/17 00:53:26;;;;;;;17.77;6.47;;;;;;;8.61;57.31;99521.91;1762123;79;21088;-81
2022/05/17 00:56:01;;;;;;;15.98;5.72;;;;;;;8.75;56.95;99528.77;1745778;79;20981;-80
2022/05/17 00:58:52;;;;;;;15.35;6.17;;;;;;;8.86;56.12;99524.66;1731661;80;21035;-81
2022/05/17 01:01:24;;;;;;;13.18;6.53;;;;;;;8.95;55.48;99522.00;1729861;80;20975;-82
2022/05/17 01:03:59;;;;;;;13.72;6.28;;;;;;;9.00;54.91;99521.07;1737710;80;21142;-82
2022/05/17 01:06:44;;;;;;;17.92;6.75;;;;;;;9.04;54.79;99520.69;1759974;79;20980;-81
2022/05/17 01:09:12;;;;;;;16.10;6.72;;;;;;;9.09;54.53;99517.03;1754360;80;20996;-81
2022/05/17 01:11:44;;;;;;;23.52;7.45;;;;;;;9.13;54.55;99516.09;1727304;81;21485;-85
2022/05/17 01:17:04;;;;;;;17.20;6.15;;;;;;;9.18;53.87;99512.41;1688953;83;21132;-82
2022/05/17 01:19:32;;;;;;;17.65;5.53;;;;;;;9.18;53.64;99507.48;1686130;83;20985;-75
2022/05/17 01:22:03;;;;;;;12.28;5.53;;;;;;;9.16;53.59;99506.40;1701242;83;21065;-81
2022/05/17 01:24:35;;;;;;;13.75;5.42;;;;;;;9.18;53.53;99508.28;1652174;85;21121;-78
2022/05/17 01:27:08;;;;;;;13.78;5.83;;;;;;;9.22;53.55;99505.17;1680701;83;21021;-80
2022/05/17 01:29:42;;;;;;;14.35;4.65;;;;;;;9.25;53.35;99505.09;1724408;82;20982;-76
2022/05/17 01:32:14;;;;;;;12.30;4.92;;;;;;;9.27;53.24;99498.73;1693207;82;21208;-81
2022/05/17 01:34:46;;;;;;;10.50;4.50;;;;;;;9.31;53.09;99502.50;1716181;82;21050;-81
2022/05/17 01:37:18;;;;;;;11.88;4.65;;;;;;;9.33;52.98;99505.72;1693596;83;21004;-81
2022/05/17 01:39:44;;;;;;;14.65;4.25;;;;;;;9.36;52.79;99504.30;1692274;82;21553;-81
2022/05/17 01:42:15;;;;;;;10.32;5.20;;;;;;;9.34;52.54;99500.49;1713588;81;21069;-81
2022/05/17 01:44:44;;;;;;;17.80;4.72;;;;;;;9.31;52.47;99497.00;1697719;82;20997;-82
2022/05/17 01:47:14;;;;;;;15.68;4.90;;;;;;;9.31;52.48;99503.05;1685642;82;21103;-79
2022/05/17 01:49:49;;;;;;;9.65;4.58;;;;;;;9.29;52.52;99496.48;1696333;82;21537;-78
2022/05/17 01:52:16;;;;;;;10.08;4.15;;;;;;;9.31;52.43;99492.05;1697385;83;21187;-81
2022/05/17 01:54:44;;;;;;;12.88;4.25;;;;;;;9.30;52.46;99493.98;1689567;83;21123;-81
2022/05/17 01:57:15;;;;;;;6.90;3.72;;;;;;;9.31;52.29;99499.75;1745326;80;21047;-79
2022/05/17 01:59:44;;;;;;;9.45;4.22;;;;;;;9.28;52.15;99497.59;1738979;80;21058;-82
2022/05/17 02:02:15;;;;;;;10.80;4.03;;;;;;;9.27;52.05;99496.53;1768062;79;21040;-80
2022/05/17 02:04:42;;;;;;;8.18;3.27;;;;;;;9.22;52.03;99492.80;1746926;79;21539;-80
2022/05/17 02:07:14;;;;;;;10.08;4.10;;;;;;;9.20;52.17;99492.84;1754619;80;20994;-80
2022/05/17 02:09:47;;;;;;;12.73;4.05;;;;;;;9.18;52.17;99490.41;1675158;83;21008;-81
2022/05/17 02:12:20;;;;;;;7.95;3.60;;;;;;;9.15;52.21;99491.04;1762291;80;21038;-80
2022/05/17 02:14:59;;;;;;;8.35;4.35;;;;;;;9.07;52.18;99491.23;1699767;83;21067;-79
2022/05/17 02:17:26;;;;;;;13.88;4.53;;;;;;;8.96;52.89;99489.27;1672671;83;21173;-79
2022/05/17 02:20:00;;;;;;;9.10;4.50;;;;;;;8.86;53.84;99494.44;1697034;82;22269;-77
2022/05/17 02:22:32;;;;;;;6.97;3.52;;;;;;;8.76;54.58;99498.23;1720610;81;21036;-79
2022/05/17 02:25:08;;;;;;;15.32;4.03;;;;;;;8.67;55.17;99493.20;1695043;82;21008;-81
2022/05/17 02:27:38;;;;;;;12.90;4.05;;;;;;;8.62;55.50;99494.68;1724410;81;21577;-77
2022/05/17 02:30:10;;;;;;;8.30;3.83;;;;;;;8.54;55.74;99497.57;1757108;80;21085;-78
2022/05/17 02:32:43;;;;;;;5.53;2.90;;;;;;;8.46;55.72;99492.22;1726359;80;21843;-80
2022/05/17 02:35:13;;;;;;;7.78;3.35;;;;;;;8.42;56.01;99497.27;1746233;80;21115;-79
2022/05/17 02:37:46;;;;;;;10.13;3.33;;;;;;;8.37;55.97;99493.52;1751138;81;21030;-79
2022/05/17 02:40:15;;;;;;;12.07;3.85;;;;;;;8.45;55.90;99492.53;1705324;82;21128;-80
2022/05/17 02:42:46;;;;;;;9.90;3.80;;;;;;;8.52;55.71;99491.02;1702686;83;21007;-81
2022/05/17 02:45:22;;;;;;;7.85;3.40;;;;;;;8.63;55.55;99494.95;1691098;83;21057;-81
2022/05/17 02:47:52;;;;;;;8.00;3.20;;;;;;;8.73;55.24;99498.03;1700840;82;21042;-80
2022/05/17 02:50:22;;;;;;;7.65;3.27;;;;;;;8.83;54.91;99491.50;1688071;82;21046;-77
2022/05/17 02:52:51;;;;;;;11.18;3.42;;;;;;;8.92;54.58;99489.66;1682166;83;21106;-78
2022/05/17 02:55:23;;;;;;;7.30;2.65;;;;;;;8.99;54.24;99486.48;1663229;84;21074;-79
2022/05/17 02:57:58;;;;;;;4.15;2.42;;;;;;;9.01;54.02;99485.03;1681402;82;21054;-80
2022/05/17 03:00:26;;;;;;;7.20;3.83;;;;;;;9.04;53.98;99482.79;1674500;83;21113;-66
2022/05/17 03:02:58;;;;;;;6.37;2.77;;;;;;;9.07;53.96;99477.48;1680462;82;21052;-80
2022/05/17 03:05:25;;;;;;;11.18;2.62;;;;;;;9.10;53.92;99477.41;1714637;81;21998;-82
2022/05/17 03:07:56;;;;;;;5.65;2.37;;;;;;;9.16;53.61;99472.62;1726149;81;21077;-79
2022/05/17 03:10:24;;;;;;;5.53;2.33;;;;;;;9.19;53.53;99476.11;1685856;83;21057;-81
2022/05/17 03:12:50;;;;;;;8.48;2.52;;;;;;;9.23;53.49;99475.72;1701070;82;21113;-78
2022/05/17 03:15:26;;;;;;;6.05;2.50;;;;;;;9.27;53.47;99475.36;1686408;82;21144;-71
2022/05/17 03:17:55;;;;;;;4.83;1.75;;;;;;;9.31;53.62;99464.55;1686061;83;21722;-72
2022/05/17 03:20:23;;;;;;;2.85;1.80;;;;;;;9.35;53.64;99462.23;1667489;83;21500;-77
2022/05/17 03:22:57;;;;;;;2.42;1.60;;;;;;;9.40;53.50;99456.38;1720159;81;21007;-79
2022/05/17 03:25:26;;;;;;;3.52;1.82;;;;;;;9.45;53.62;99439.16;1775909;79;21498;-81
2022/05/17 03:27:57;;;;;;;5.15;1.67;;;;;;;9.53;53.47;99446.41;1741305;79;21754;-80
2022/05/17 03:30:32;;;;;;;3.87;1.50;;;;;;;9.60;53.58;99472.91;1757751;79;20977;-78
2022/05/17 03:33:05;;;;;;;5.05;2.12;;;;;;;9.61;53.62;99478.09;1706080;82;21005;-80
2022/05/17 03:35:37;;;;;;;4.90;1.87;;;;;;;9.58;53.61;99471.85;1720738;81;21213;-73
2022/05/17 03:38:05;;;;;;;6.33;1.70;;;;;;;9.58;53.53;99475.16;1770308;79;21022;-78
2022/05/17 03:40:36;;;;;;;4.08;1.40;;;;;;;9.61;53.62;99471.22;1767892;79;21101;-81
2022/05/17 03:43:08;;;;;;;5.10;2.02;;;;;;;9.67;53.72;99476.00;1774270;79;21084;-82
2022/05/17 03:45:43;;;;;;;6.97;2.25;;;;;;;9.74;53.79;99475.59;1772613;79;21021;-74
2022/05/17 03:48:17;;;;;;;3.52;1.87;;;;;;;9.80;53.80;99471.56;1755408;79;21020;-81
2022/05/17 03:50:45;;;;;;;4.03;2.08;;;;;;;9.85;53.72;99478.86;1764014;79;21035;-78
2022/05/17 03:53:12;;;;;;;5.70;2.00;;;;;;;9.88;53.48;99474.09;1764408;79;21037;-81
2022/05/17 03:55:39;;;;;;;4.30;1.60;;;;;;;9.92;53.45;99477.85;1737329;80;21080;-81
2022/05/17 03:58:10;;;;;;;8.05;2.52;;;;;;;9.95;53.48;99466.20;1741132;80;21588;-81
2022/05/17 04:00:41;;;;;;;7.70;2.25;;;;;;;10.00;53.60;99476.84;1734998;79;21535;-78
2022/05/17 04:03:12;;;;;;;5.50;1.98;;;;;;;10.04;53.84;99470.93;1768629;79;21025;-80
2022/05/17 04:05:45;;;;;;;6.37;2.10;;;;;;;10.07;53.61;99470.29;1734835;79;21109;-82
2022/05/17 04:08:19;;;;;;;6.78;2.30;;;;;;;10.10;53.42;99462.77;1772478;79;21006;-78
2022/05/17 04:10:49;;;;;;;8.05;1.70;;;;;;;10.14;53.55;99462.39;1763193;79;21064;-79
2022/05/17 04:13:18;;;;;;;6.50;2.22;;;;;;;10.19;53.77;99460.87;1769349;79;21533;-78
2022/05/17 04:15:48;;;;;;;3.40;1.77;;;;;;;10.22;53.65;99464.36;1757677;79;21541;-77
2022/05/17 04:18:18;;;;;;;5.80;1.90;;;;;;;10.27;53.89;99462.60;1743705;79;21091;-79
2022/05/17 04:20:45;;;;;;;5.12;1.57;;;;;;;10.30;54.02;99461.95;1746414;79;20990;-83
2022/05/17 04:23:17;;;;;;;3.60;1.75;;;;;;;10.38;53.99;99454.28;1719638;79;21546;-80
2022/05/17 04:25:50;;;;;;;3.47;1.85;;;;;;;10.42;53.75;99451.11;1754727;79;21150;-79
2022/05/17 04:28:18;;;;;;;2.75;1.25;;;;;;;10.44;53.42;99450.82;1741247;80;21030;-80
2022/05/17 04:30:48;;;;;;;3.92;1.30;;;;;;;10.47;53.37;99452.37;1698761;81;21226;-77
2022/05/17 04:33:17;;;;;;;7.15;1.60;;;;;;;10.51;53.11;99443.49;1752483;79;21143;-81
2022/05/17 04:35:45;;;;;;;4.05;1.42;;;;;;;10.52;52.69;99445.92;1695920;82;21050;-81
2022/05/17 04:38:31;;;;;;;5.22;1.60;;;;;;;10.52;52.63;99448.67;1733380;81;21051;-81
2022/05/17 04:41:03;;;;;;;4.72;1.47;;;;;;;10.52;52.68;99449.23;1699846;82;21613;-80
2022/05/17 04:43:38;;;;;;;4.05;1.40;;;;;;;10.51;52.53;99457.27;1698911;82;21079;-82
2022/05/17 04:46:14;;;;;;;2.40;1.40;;;;;;;10.53;52.48;99454.98;1708825;81;21087;-82
2022/05/17 04:48:43;;;;;;;6.35;1.47;;;;;;;10.56;52.47;99459.28;1712590;82;21059;-70
2022/05/17 04:51:16;;;;;;;3.65;1.70;;;;;;;10.64;52.79;99462.38;1702181;82;21018;-80
2022/05/17 04:53:55;;;;;;;4.58;1.40;;;;;;;10.73;53.03;99460.43;1674759;83;21541;-78
2022/05/17 04:56:27;;;;;;;6.65;1.30;;;;;;;10.87;52.41;99448.44;1698298;82;21598;-81
2022/05/17 04:58:58;;;;;;;7.35;1.47;;;;;;;10.98;52.23;99444.80;1683879;82;22097;-75
2022/05/17 05:01:44;;;;;;;2.83;0.98;;;;;;;11.12;52.11;99445.47;1661381;83;21031;-81
2022/05/17 05:04:02;;;;;;;6.20;1.35;;;;;;;11.28;51.91;99449.89;1688196;82;20993;-81
2022/05/17 05:06:32;;;;;;;6.40;1.10;;;;;;;11.40;51.61;99451.17;1701327;82;21037;-78
2022/05/17 05:09:04;;;;;;;9.75;1.30;;;;;;;11.46;51.45;99439.40;1752339;79;21011;-81
2022/05/17 05:11:34;;;;;;;3.98;1.40;;;;;;;11.54;51.44;99436.63;1711344;81;21730;-78
2022/05/17 05:14:03;;;;;;;3.67;1.30;;;;;;;11.63;50.85;99436.61;1748118;79;21495;-76
2022/05/17 05:16:41;;;;;;;6.33;1.62;;;;;;;11.71;51.21;99434.12;1693290;82;21286;-81
2022/05/17 05:19:14;;;;;;;4.25;1.30;;;;;;;11.80;50.86;99432.16;1747306;81;21128;-76
2022/05/17 05:21:46;;;;;;;;;;;;;;;11.87;49.68;99435.78;1681741;84;21048;-82
2022/05/17 05:24:15;;;;;;;2.27;1.02;;;;;;;11.90;49.28;99433.17;1703789;83;20187;-79
2022/05/17 05:26:56;;;;;;;4.97;1.32;;;;;;;11.99;49.66;99430.95;1712557;83;21019;-75
2022/05/17 05:29:31;;;;;;;2.40;0.93;;;;;;;12.14;49.52;99430.98;1689392;82;22270;-80
2022/05/17 05:32:04;;;;;;;3.95;1.70;;;;;;;12.27;49.10;99424.97;1749118;80;21002;-80
2022/05/17 05:34:36;;;;;;;3.33;1.30;;;;;;;12.30;48.86;99428.44;1705750;83;21072;-81
2022/05/17 05:37:07;;;;;;;6.47;1.27;;;;;;;12.32;49.01;99430.30;1708140;82;20965;-77
2022/05/17 05:39:38;;;;;;;2.40;0.90;;;;;;;12.44;49.09;99423.23;1715674;82;21014;-79
2022/05/17 05:42:08;;;;;;;2.55;1.00;;;;;;;12.62;48.48;99427.50;1715061;82;21225;-79
2022/05/17 05:44:42;;;;;;;2.47;1.12;;;;;;;12.72;48.28;99425.50;1674862;83;21082;-77
2022/05/17 05:47:14;;;;;;;3.33;1.37;;;;;;;12.78;48.86;99430.48;1672499;83;21045;-79
2022/05/17 05:49:44;;;;;;;6.40;1.87;;;;;;;12.83;48.91;99430.84;1687749;83;21126;-78
2022/05/17 05:52:13;;;;;;;4.72;1.55;;;;;;;12.84;48.22;99431.66;1767075;80;20982;-77
2022/05/17 05:54:43;;;;;;;6.75;1.25;;;;;;;12.86;48.09;99434.91;1761142;80;20979;-79
2022/05/17 05:57:16;;;;;;;4.45;1.30;;;;;;;12.93;48.72;99425.47;1708101;83;21493;-81
2022/05/17 05:59:46;;;;;;;5.00;1.42;;;;;;;13.02;48.15;99435.09;1691803;83;21118;-83
2022/05/17 06:02:19;;;;;;;2.90;1.60;;;;;;;13.00;47.63;99430.46;1690822;82;21067;-83
2022/05/17 06:04:49;;;;;;;9.33;1.37;;;;;;;13.01;47.39;99429.33;1681049;82;21154;-84
2022/05/17 06:07:19;;;;;;;3.52;1.30;;;;;;;13.10;48.35;99434.79;1682824;83;21011;-80
2022/05/17 06:09:47;;;;;;;7.90;1.35;;;;;;;13.27;48.33;99437.97;1691504;82;21024;-83
2022/05/17 06:12:20;;;;;;;2.42;0.93;;;;;;;13.36;47.25;99434.53;1707203;82;21060;-80
2022/05/17 06:14:54;;;;;;;3.20;1.20;;;;;;;13.46;46.98;99433.28;1684133;83;21022;-79
2022/05/17 06:17:27;;;;;;;2.45;1.05;;;;;;;13.61;46.69;99431.84;1726739;81;20983;-79
2022/05/17 06:20:02;;;;;;;3.17;1.20;;;;;;;13.74;46.46;99431.31;1697835;82;21502;-78
2022/05/17 06:22:29;;;;;;;4.20;0.93;;;;;;;13.78;45.60;99430.05;1698080;83;21080;-82
2022/05/17 06:24:56;;;;;;;4.15;1.10;;;;;;;13.72;45.11;99424.48;1704544;83;21042;-79
2022/05/17 06:27:24;;;;;;;2.75;1.20;;;;;;;13.73;45.90;99420.58;1726791;81;21059;-82
2022/05/17 06:29:52;;;;;;;6.78;2.27;;;;;;;13.86;45.33;99420.83;1775391;79;21086;-74
2022/05/17 06:32:19;;;;;;;6.17;1.10;;;;;;;14.00;44.93;99416.91;1760670;79;21200;-80
2022/05/17 06:34:53;;;;;;;4.80;0.95;;;;;;;14.08;44.11;99415.98;1684060;82;21075;-75
2022/05/17 06:37:22;;;;;;;1.77;1.20;;;;;;;14.15;43.82;99409.04;1700028;82;21165;-74
2022/05/17 06:39:56;;;;;;;3.20;1.02;;;;;;;14.24;43.59;99406.37;1692376;83;21012;-68
2022/05/17 06:42:32;;;;;;;1.45;0.90;;;;;;;14.39;43.44;99403.24;1700875;82;21055;-69
2022/05/17 06:45:00;;;;;;;5.95;1.10;;;;;;;14.56;42.41;99400.22;1718248;82;21089;-81
2022/05/17 06:47:29;;;;;;;4.50;0.93;;;;;;;14.75;42.19;99404.89;1679005;82;21087;-76
2022/05/17 06:49:58;;;;;;;1.85;1.10;;;;;;;14.94;42.41;99396.76;1704477;82;21797;-82
2022/05/17 06:52:26;;;;;;;2.75;1.20;;;;;;;15.15;42.64;99400.52;1700213;82;21108;-75
2022/05/17 06:54:56;;;;;;;3.30;1.40;;;;;;;15.26;41.75;99394.67;1688921;83;21546;-75
2022/05/17 06:57:23;;;;;;;1.50;0.93;;;;;;;15.41;41.64;99395.03;1713059;81;21067;-82
2022/05/17 06:59:51;;;;;;;2.20;0.88;;;;;;;15.53;40.96;99392.19;1705456;82;20990;-77
2022/05/17 07:02:17;;;;;;;1.72;0.90;;;;;;;15.52;37.68;99389.20;1713067;82;21126;-83
2022/05/17 07:04:45;;;;;;;6.00;1.00;;;;;;;15.46;38.10;99385.06;1715819;81;20977;-73
2022/05/17 07:07:15;;;;;;;1.77;1.22;;;;;;;15.50;37.96;99380.42;1695330;82;21060;-73
2022/05/17 07:13:07;;;;;;;3.62;1.12;;;;;;;15.58;38.92;99381.39;1692098;82;21034;-74
2022/05/17 07:15:15;;;;;;;3.75;1.05;;;;;;;15.76;38.31;99381.05;1706132;83;21082;-73
2022/05/17 07:17:45;;;;;;;6.10;1.00;;;;;;;15.88;38.74;99367.65;1698551;82;21085;-79
2022/05/17 07:20:12;;;;;;;1.10;1.00;;;;;;;16.01;38.14;99373.92;1708206;81;21051;-79
2022/05/17 07:22:44;;;;;;;1.75;0.80;;;;;;;16.14;38.46;99369.87;1688033;82;21089;-78
2022/05/17 07:25:12;;;;;;;4.00;0.80;;;;;;;16.28;38.33;99366.61;1725763;81;20992;-79
2022/05/17 07:27:44;;;;;;;2.37;0.90;;;;;;;16.36;37.83;99365.39;1694676;82;21119;-83
2022/05/17 07:30:12;;;;;;;1.90;0.90;;;;;;;16.35;35.91;99354.84;1679095;82;21637;-83
2022/05/17 07:32:40;;;;;;;1.37;0.70;;;;;;;16.35;36.25;99367.93;1682794;83;21096;-80
2022/05/17 07:35:10;;;;;;;2.05;0.53;;;;;;;16.41;37.13;99366.50;1705354;82;21235;-78
2022/05/17 07:37:36;;;;;;;1.10;0.50;;;;;;;16.57;36.70;99364.22;1690798;82;21523;-82
2022/05/17 07:40:08;;;;;;;4.62;0.95;;;;;;;16.70;36.13;99347.61;1760245;79;20973;-79
2022/05/17 07:42:37;;;;;;;4.10;0.60;;;;;;;16.87;36.93;99351.14;1726796;81;21022;-79
2022/05/17 07:45:06;;;;;;;2.27;0.65;;;;;;;17.09;36.83;99350.16;1699560;83;21356;-78
2022/05/17 07:47:33;;;;;;;5.00;0.40;;;;;;;17.32;36.09;99349.39;1682708;83;21604;-80
2022/05/17 07:50:00;;;;;;;6.75;0.80;;;;;;;17.44;35.76;99352.00;1672296;83;21171;-79
2022/05/17 07:52:26;;;;;;;3.22;0.62;;;;;;;17.41;34.40;99354.14;1690503;82;21109;-84
2022/05/17 07:54:55;;;;;;;3.45;0.40;;;;;;;17.30;33.73;99350.37;1687665;82;20984;-80
2022/05/17 07:57:27;;;;;;;1.15;0.50;;;;;;;17.20;34.10;99342.83;1700205;82;21010;-77
2022/05/17 07:59:53;;;;;;;2.98;0.53;;;;;;;17.22;34.44;99344.66;1696809;82;21124;-80
2022/05/17 08:02:20;;;;;;;1.12;0.47;;;;;;;17.24;35.39;99345.11;1680573;82;22468;-78
2022/05/17 08:04:48;;;;;;;2.37;0.70;;;;;;;17.35;34.40;99338.32;1684303;82;21024;-78
2022/05/17 08:07:18;;;;;;;2.83;0.95;;;;;;;17.42;34.21;99344.59;1708053;82;21066;-81
2022/05/17 08:09:50;;;;;;;2.17;0.68;;;;;;;17.36;33.52;99339.13;1707853;82;21797;-82
2022/05/17 08:12:22;;;;;;;4.40;0.55;;;;;;;17.29;33.88;99321.71;1774444;79;21074;-82
2022/05/17 08:14:49;;;;;;;5.42;0.80;;;;;;;17.36;34.88;99334.38;1760450;79;21558;-78
2022/05/17 08:17:21;;;;;;;5.85;0.85;;;;;;;17.53;34.68;99325.30;1738052;79;21484;-80
2022/05/17 08:19:49;;;;;;;4.70;0.90;;;;;;;17.59;33.88;99322.98;1763650;79;21005;-76
2022/05/17 08:22:16;;;;;;;5.33;1.35;;;;;;;17.57;33.60;99328.93;1775653;79;21047;-78
2022/05/17 08:27:37;;;;;;;3.02;1.00;;;;;;;17.62;33.87;99309.12;1661192;84;21529;-73
2022/05/17 08:30:16;;;;;;;1.20;0.93;;;;;;;17.67;34.77;99314.98;1666191;80;21170;-80
2022/05/17 08:33:16;;;;;;;2.08;0.50;;;;;;;17.76;34.58;99308.55;1764205;79;21205;-74
2022/05/17 08:36:04;;;;;;;1.90;0.53;;;;;;;17.78;33.96;99312.35;1753498;79;21527;-85
2022/05/17 08:38:44;;;;;;;5.08;0.60;;;;;;;17.71;33.53;99308.86;1753603;79;21183;-80
2022/05/17 08:41:38;;;;;;;1.72;0.50;;;;;;;17.66;33.10;99307.79;1769281;79;21001;-83
2022/05/17 08:44:17;;;;;;;2.72;0.68;;;;;;;17.68;34.14;99301.84;1759187;79;21021;-80
2022/05/17 08:47:12;;;;;;;3.27;0.40;;;;;;;17.83;34.20;99291.13;1702088;83;21631;-81
2022/05/17 08:50:01;;;;;;;1.70;0.50;;;;;;;17.98;33.87;99293.53;1719692;82;21106;-81
2022/05/17 08:52:30;;;;;;;6.00;0.50;;;;;;;18.00;32.69;99289.78;1765673;79;21084;-82
2022/05/17 08:55:26;;;;;;;2.40;0.55;;;;;;;17.85;32.85;99285.19;1696102;82;21120;-79
2022/05/17 08:58:12;;;;;;;1.87;0.78;;;;;;;17.73;32.58;99283.42;1707851;82;21110;-82
2022/05/17 09:00:48;;;;;;;1.12;0.50;;;;;;;17.61;33.23;99283.03;1696388;83;21077;-75
2022/05/17 09:03:51;;;;;;;1.65;0.60;;;;;;;17.65;33.35;99274.16;1701064;82;21101;-74
2022/05/17 09:06:29;;;;;;;2.20;0.55;;;;;;;17.70;33.68;99273.84;1682912;83;21151;-77
2022/05/17 09:09:27;;;;;;;4.60;0.72;;;;;;;17.94;33.86;99270.98;1709116;81;21675;-75
2022/05/17 09:12:00;;;;;;;9.63;1.15;;;;;;;18.15;33.18;99280.86;1681791;83;21031;-78
2022/05/17 09:14:33;;;;;;;2.62;0.72;;;;;;;18.24;32.80;99258.47;1724694;82;21087;-80
2022/05/17 09:17:10;;;;;;;5.30;0.70;;;;;;;18.19;32.20;99271.35;1732010;81;21139;-77
2022/05/17 09:19:43;;;;;;;5.92;0.68;;;;;;;18.08;31.98;99271.78;1723222;81;21479;-87
2022/05/17 09:22:13;;;;;;;1.87;0.55;;;;;;;17.97;32.45;99270.23;1709513;81;21043;-82
2022/05/17 09:24:44;;;;;;;6.85;0.80;;;;;;;17.98;33.29;99258.70;1726770;81;21050;-79
2022/05/17 09:27:36;;;;;;;4.85;1.17;;;;;;;18.12;33.81;99260.06;1722571;82;21225;-81
2022/05/17 09:30:24;;;;;;;8.70;0.72;;;;;;;18.34;33.25;99261.18;1746575;80;20971;-76
2022/05/17 09:33:01;;;;;;;1.62;0.57;;;;;;;18.57;32.59;99265.03;1761162;79;21022;-77
2022/05/17 09:35:30;;;;;;;0.60;0.45;;;;;;;18.70;32.35;99251.61;1740470;80;21035;-79
2022/05/17 09:37:59;;;;;;;4.00;0.95;;;;;;;18.68;31.68;99243.62;1716671;79;21058;-80
2022/05/17 09:40:34;;;;;;;3.65;0.98;;;;;;;18.48;32.54;99243.82;1747221;80;21017;-81
2022/05/17 09:43:09;;;;;;;2.67;0.88;;;;;;;18.37;32.19;99228.34;1754071;79;21043;-84
2022/05/17 09:45:58;;;;;;;7.37;1.40;;;;;;;18.34;33.44;99240.84;1755330;81;21630;-80
2022/05/17 09:52:31;;;;;;;5.72;1.07;;;;;;;18.46;33.11;99239.79;1744191;79;21522;-79
2022/05/17 09:54:00;;;;;;;7.75;0.95;;;;;;;18.39;33.08;99244.70;1658094;83;21079;-78
2022/05/17 09:56:32;;;;;;;5.30;1.42;;;;;;;18.39;32.98;99243.30;1695487;83;21086;-83
2022/05/17 09:59:03;;;;;;;2.37;1.10;;;;;;;18.41;32.63;99239.55;1709070;82;21122;-83
2022/05/17 10:01:40;;;;;;;7.08;1.00;;;;;;;18.32;32.47;99224.50;1679680;83;21037;-75
2022/05/17 10:04:13;;;;;;;6.53;1.42;;;;;;;18.36;33.82;99230.13;1707270;82;21026;-78
2022/05/17 10:06:46;;;;;;;7.75;1.50;;;;;;;18.53;34.22;99227.91;1689412;82;21139;-80
2022/05/17 10:09:39;;;;;;;5.58;1.10;;;;;;;18.67;31.82;99222.50;1695869;83;21115;-79
2022/05/17 10:12:37;;;;;;;5.95;1.00;;;;;;;18.82;31.66;99224.83;1698351;82;21172;-81
2022/05/17 10:15:10;;;;;;;5.25;0.90;;;;;;;18.98;32.04;99215.41;1755175;79;21538;-79
2022/05/17 10:17:59;;;;;;;3.05;1.27;;;;;;;18.86;31.41;99210.92;1746320;79;21018;-76
2022/05/17 10:20:38;;;;;;;6.17;1.17;;;;;;;18.69;31.06;99211.77;1746948;80;21538;-81
2022/05/17 10:23:32;;;;;;;10.63;1.20;;;;;;;18.45;31.14;99201.36;1756233;79;21051;-77
2022/05/17 10:26:10;;;;;;;5.33;0.95;;;;;;;18.31;31.69;99202.58;1776017;79;21131;-79
2022/05/17 10:29:06;;;;;;;14.28;1.10;;;;;;;18.32;32.04;99188.86;1754333;79;21011;-82
2022/05/17 10:31:50;;;;;;;5.67;0.80;;;;;;;18.46;33.76;99190.98;1752277;79;21056;-81
2022/05/17 10:35:03;;;;;;;4.67;1.32;;;;;;;18.80;33.04;99192.94;1695604;83;21052;-79
2022/05/17 10:37:39;;;;;;;19.75;2.87;;;;;;;18.99;32.07;99176.53;1702850;81;21023;-82
2022/05/17 10:40:29;;;;;;;3.15;0.85;;;;;;;19.10;32.04;99178.03;1761834;79;21126;-83
2022/05/17 10:43:07;;;;;;;4.25;1.00;;;;;;;19.00;30.65;99175.95;1726263;80;21052;-81
2022/05/17 10:45:37;;;;;;;2.67;1.20;;;;;;;18.73;31.04;99179.72;1753903;79;21478;-72
2022/05/17 10:48:53;;;;;;;13.35;1.45;;;;;;;18.60;31.18;99177.78;1730939;80;21039;-78
2022/05/17 10:51:40;;;;;;;5.03;1.00;;;;;;;18.52;31.36;99181.69;1748736;79;21006;-71
2022/05/17 10:54:36;;;;;;;9.33;1.00;;;;;;;18.58;32.89;99161.43;1766451;79;21769;-75
2022/05/17 10:57:26;;;;;;;3.72;0.70;;;;;;;18.76;33.18;99166.39;1766093;79;21081;-75
2022/05/17 11:00:19;;;;;;;2.20;1.02;;;;;;;18.89;32.07;99164.09;1701824;82;21091;-77
2022/05/17 11:03:22;;;;;;;10.38;1.67;;;;;;;18.85;32.49;99159.88;1706202;82;21053;-76
2022/05/17 11:06:02;;;;;;;3.08;1.17;;;;;;;18.79;32.07;99160.03;1694121;82;21555;-75
2022/05/17 11:08:53;;;;;;;4.70;1.02;;;;;;;18.70;32.33;99159.53;1658580;83;22390;-81
2022/05/17 11:11:47;;;;;;;4.17;1.20;;;;;;;18.65;32.54;99150.93;1679524;82;21037;-82
2022/05/17 11:14:40;;;;;;;5.62;1.07;;;;;;;18.59;34.02;99148.30;1686492;82;21054;-80
2022/05/17 11:17:15;;;;;;;6.30;1.27;;;;;;;18.72;33.47;99152.40;1680042;83;21002;-84
2022/05/17 11:19:56;;;;;;;2.55;0.78;;;;;;;18.90;32.74;99147.55;1682040;82;21113;-77
2022/05/17 11:23:03;;;;;;;10.55;1.30;;;;;;;19.01;32.88;99146.25;1693167;82;21307;-81
2022/05/17 11:26:02;;;;;;;3.35;0.82;;;;;;;19.00;31.69;99145.24;1724950;81;22230;-69
2022/05/17 11:28:59;;;;;;;2.40;0.90;;;;;;;18.92;31.96;99144.39;1757042;79;21109;-69
2022/05/17 11:31:43;;;;;;;2.58;0.90;;;;;;;18.86;31.88;99136.97;1753103;79;21107;-69
2022/05/17 11:34:33;;;;;;;7.85;1.75;;;;;;;18.93;32.92;99134.83;1749073;79;21560;-66
2022/05/17 11:37:08;;;;;;;10.32;1.10;;;;;;;19.08;32.05;99137.94;1751422;80;22095;-69
2022/05/17 11:39:46;;;;;;;5.67;0.80;;;;;;;19.03;31.08;99137.48;1691848;82;21064;-65
2022/05/17 11:42:35;;;;;;;2.95;0.88;;;;;;;18.94;31.18;99124.66;1712396;82;21097;-67
2022/05/17 11:45:24;;;;;;;8.65;0.85;;;;;;;18.87;31.28;99128.01;1668650;83;21014;-69
2022/05/17 11:47:57;;;;;;;9.15;1.20;;;;;;;18.72;31.00;99126.48;1677346;82;20996;-72
2022/05/17 11:50:38;;;;;;;10.90;0.80;;;;;;;18.48;30.96;99118.31;1714899;81;21469;-67
2022/05/17 11:53:29;;;;;;;8.28;1.17;;;;;;;18.28;31.47;99116.91;1712260;82;21617;-71
2022/05/17 11:56:28;;;;;;;5.83;0.80;;;;;;;18.11;31.82;99113.53;1701380;82;21509;-70
2022/05/17 11:58:58;;;;;;;6.80;0.90;;;;;;;18.00;31.39;99120.36;1647378;84;21042;-65
2022/05/17 12:01:35;;;;;;;10.08;1.65;;;;;;;18.02;31.80;99112.43;1686368;83;20964;-65
2022/05/17 12:04:24;;;;;;;6.55;1.02;;;;;;;18.25;32.32;99108.12;1687748;83;21549;-70
2022/05/17 12:07:07;;;;;;;13.83;1.62;;;;;;;18.58;31.74;99098.66;1706627;82;21081;-68
2022/05/17 12:09:33;;;;;;;7.30;1.15;;;;;;;18.90;30.66;99109.87;1723304;82;20980;-67
2022/05/17 12:12:16;;;;;;;7.75;1.30;;;;;;;19.03;29.74;99102.59;1743111;80;21059;-71
2022/05/17 12:15:18;;;;;;;6.60;1.45;;;;;;;19.05;29.96;99099.63;1754236;80;21027;-67
2022/05/17 12:18:00;;;;;;;13.30;1.60;;;;;;;19.13;30.12;99097.71;1751701;80;21142;-66
2022/05/17 12:21:02;;;;;;;15.93;1.82;;;;;;;19.34;28.60;99095.63;1739491;80;21008;-68
2022/05/17 12:23:47;;;;;;;10.82;1.55;;;;;;;19.42;27.16;99088.10;1705452;83;20992;-65